San Francisco, CA

10:54 AM PDT en Agosto 24, 2016 (GMT -0700)
North Mission (Valencia and Market) | | Change Station

Alt 62 ft 37.77 °N, 122.42 °W | Updated 4 minutes ago

Mostly Cloudy
Muy nublado
58.6 ° F
Sensación térmica 58.6 ° F
N
0.0
Viento Variable Viento desde SE
Gusts 9.0 mph

Hoy
Alta -- | Baja -- ° F
--% Posibilidad de precipitaciones
Ayer
Alta -- | Baja -- ° F
Precip. -- pul
Presión 30.12 pul
Visibilidad 9.0 Millas
Nubes Baja 700 ft
Nubes dispersas 1100 ft
Muy nublado 1500 ft
Punto de rocío 55 ° F
Humedad 87%
Precipitaciones 0.00 pul
Espesor de la nieve No disponible.
6:33 AM 7:49 PM
Gibosa menguante, 55% visible
METAR KSFO 241656Z 31009KT 9SM FEW007 SCT011 BKN015 16/12 A3011 RMK AO2 SLP197 T01610117
Presión 30.12 pul
Visibilidad 9.0 Millas
Nubes Baja 700 ft
Nubes dispersas 1100 ft
Muy nublado 1500 ft
Punto de rocío 55 ° F
Humedad 87%
Precipitaciones 0.00 pul
Espesor de la nieve No disponible.
6:33 AM 7:49 PM
Gibosa menguante, 55% visible
METAR KSFO 241656Z 31009KT 9SM FEW007 SCT011 BKN015 16/12 A3011 RMK AO2 SLP197 T01610117

10-Day Weather Forecast

Almanac

Astronomía

Aug. 24, 2016 Salida Puesta
Hora real
Crepúsculo civil
Crepúsculo náutico
Crepúsculo astronómico
Luna
Horas de luz
Horas de luz
Tomorrow will be .
, % of the Moon is Illuminated

Extremos de hoy

Máximos del estado Bajos del estado

Community

WunderPhotos

Upload Photos

1,934,661 ¡fotos cargadas!

WunderBlog® & News

Nearby

Calidad del aire

  Calidad del aire Índice AQ Contaminante
Not available.

Grosos de nieve

Estación Profundido Altura

Actividad de terremotos

Ciudad Distance Mag. Tiempo y dato
Magnitud mínima muestra es 2,5.

Temperaturas de aguas costeras

Lugar Temperatura

Stations

Estaciones meteorológicas cercanas

Ubicación de la estación Temp. Vientos helados Punto de rocío Humedad Viento Precip. Alt Actualizado Tipo
                   

Watches & Warnings

There are currently no watches in effect.